Time;durP1;ratioP1;P1;durP2;ratioP2;P2;SDS_P1;SDS_P2;PMS_P1;PMS_P2;Temp;Humidity;BMP_temperature;BMP_pressure;BME280_temperature;BME280_humidity;BME280_pressure;Samples;Min_cycle;Max_cycle;Signal;HPM_P1;HPM_P2
2023/08/13 00:01:20;;;;;;;;;;;;;;;17.74;73.79199;101648.7;;;;-71
2023/08/13 00:06:20;;;;;;;;;;;;;;;17.8;73.98145;101652.8;;;;-72
2023/08/13 00:11:21;;;;;;;;;;;;;;;17.86;74.15918;101644.3;;;;-73
2023/08/13 00:16:23;;;;;;;;;;;;;;;17.87;74.37793;101639.3;;;;-72
2023/08/13 00:18:49;;;;;;;0.2;0;;;;;;;;;;;;;-71
2023/08/13 00:21:23;;;;;;;;;;;;;;;17.9;74.41504;101640;;;;-70
2023/08/13 00:26:20;;;;;;;;;;;;;;;17.91;74.15723;101643.5;;;;-71
2023/08/13 00:31:20;;;;;;;;;;;;;;;17.97;75.20508;101646.2;;;;-71
2023/08/13 00:36:20;;;;;;;;;;;;;;;18;75.07422;101640.8;;;;-70
2023/08/13 00:41:20;;;;;;;;;;;;;;;18.04;75.35156;101638.8;;;;-70
2023/08/13 00:46:22;;;;;;;;;;;;;;;18.04;75.57617;101638.4;;;;-70
2023/08/13 00:49:00;;;;;;;0.2;0;;;;;;;;;;;;;-70
2023/08/13 00:51:22;;;;;;;;;;;;;;;18.08;75.44922;101642.6;;;;-73
2023/08/13 00:56:21;;;;;;;;;;;;;;;18.09;75.45996;101632.3;;;;-70
2023/08/13 01:01:20;;;;;;;;;;;;;;;18.11;76.26563;101635.1;;;;-72
2023/08/13 01:06:31;;;;;;;;;;;;;;;18.12;76.47168;101629.4;;;;-71
2023/08/13 01:11:22;;;;;;;;;;;;;;;18.14;75.94434;101628.8;;;;-70
2023/08/13 01:16:22;;;;;;;;;;;;;;;18.13;75.87598;101626.8;;;;-72
2023/08/13 01:18:55;;;;;;;0.7;0.3;;;;;;;;;;;;;-70
2023/08/13 01:21:21;;;;;;;;;;;;;;;18.13;76.32617;101624.9;;;;-70
2023/08/13 01:26:23;;;;;;;;;;;;;;;18.14;76.04492;101624.6;;;;-71
2023/08/13 01:31:23;;;;;;;;;;;;;;;18.16;75.92383;101616.5;;;;-72
2023/08/13 01:36:21;;;;;;;;;;;;;;;18.16;76.03613;101616.9;;;;-71
2023/08/13 01:41:20;;;;;;;;;;;;;;;18.19;76.66309;101618;;;;-70
2023/08/13 01:46:20;;;;;;;;;;;;;;;18.2;76.22656;101626.4;;;;-72
2023/08/13 01:48:58;;;;;;;0.2;0.1;;;;;;;;;;;;;-71
2023/08/13 01:51:25;;;;;;;;;;;;;;;18.22;77.03906;101622;;;;-70
2023/08/13 01:56:20;;;;;;;;;;;;;;;18.23;77.07617;101621.8;;;;-69
2023/08/13 02:01:20;;;;;;;;;;;;;;;18.24;78.26074;101624.2;;;;-71
2023/08/13 02:06:20;;;;;;;;;;;;;;;18.25;77.64258;101617.8;;;;-72
2023/08/13 02:11:20;;;;;;;;;;;;;;;18.25;78.49902;101624.5;;;;-71
2023/08/13 02:16:21;;;;;;;;;;;;;;;18.23;78.07715;101621.6;;;;-71
2023/08/13 02:19:01;;;;;;;0.2;0;;;;;;;;;;;;;-70
2023/08/13 02:21:24;;;;;;;;;;;;;;;18.21;77.56738;101628.6;;;;-71
2023/08/13 02:26:20;;;;;;;;;;;;;;;18.19;77.5752;101624.3;;;;-71
2023/08/13 02:31:20;;;;;;;;;;;;;;;18.17;77.78613;101622.1;;;;-70
2023/08/13 02:36:20;;;;;;;;;;;;;;;18.14;77.81348;101619.1;;;;-71
2023/08/13 02:41:20;;;;;;;;;;;;;;;18.13;78.11621;101613.5;;;;-72
2023/08/13 02:46:20;;;;;;;;;;;;;;;18.1;78.87793;101616.3;;;;-72
2023/08/13 02:49:04;;;;;;;0.2;0.1;;;;;;;;;;;;;-70
2023/08/13 02:51:20;;;;;;;;;;;;;;;18.07;79.04199;101618.8;;;;-71
2023/08/13 02:56:21;;;;;;;;;;;;;;;18.07;78.94043;101618.3;;;;-70
2023/08/13 03:01:20;;;;;;;;;;;;;;;18.05;78.8584;101624.3;;;;-70
2023/08/13 03:06:20;;;;;;;;;;;;;;;18.03;78.57324;101618.4;;;;-70
2023/08/13 03:11:20;;;;;;;;;;;;;;;18.02;78.45801;101620.8;;;;-71
2023/08/13 03:16:20;;;;;;;;;;;;;;;17.99;78.56543;101623.3;;;;-70
2023/08/13 03:19:07;;;;;;;0.2;0;;;;;;;;;;;;;-71
2023/08/13 03:21:22;;;;;;;;;;;;;;;17.96;79.26953;101618.3;;;;-72
2023/08/13 03:26:20;;;;;;;;;;;;;;;17.95;79.16699;101618.9;;;;-70
2023/08/13 03:31:23;;;;;;;;;;;;;;;17.93;79.0625;101618.1;;;;-72
2023/08/13 03:36:20;;;;;;;;;;;;;;;17.92;79.21875;101619.1;;;;-70
2023/08/13 03:41:20;;;;;;;;;;;;;;;17.92;78.66699;101612.6;;;;-71
2023/08/13 03:46:20;;;;;;;;;;;;;;;17.9;78.43848;101617.6;;;;-70
2023/08/13 03:49:10;;;;;;;0.2;0.1;;;;;;;;;;;;;-70
2023/08/13 03:51:23;;;;;;;;;;;;;;;17.89;78.80664;101616.8;;;;-70
2023/08/13 03:56:20;;;;;;;;;;;;;;;17.88;78.58008;101625.5;;;;-70
2023/08/13 04:01:20;;;;;;;;;;;;;;;17.85;78.75488;101627.2;;;;-71
2023/08/13 04:06:21;;;;;;;;;;;;;;;17.85;79.40625;101622.5;;;;-70
2023/08/13 04:11:21;;;;;;;;;;;;;;;17.84;78.97852;101624.1;;;;-70
2023/08/13 04:16:20;;;;;;;;;;;;;;;17.84;78.9541;101623.4;;;;-71
2023/08/13 04:19:13;;;;;;;0.8;0.2;;;;;;;;;;;;;-71
2023/08/13 04:21:21;;;;;;;;;;;;;;;17.84;79.13477;101628;;;;-71
2023/08/13 04:26:20;;;;;;;;;;;;;;;17.83;78.91895;101629.5;;;;-70
2023/08/13 04:31:20;;;;;;;;;;;;;;;17.81;80.16504;101634;;;;-70
2023/08/13 04:36:20;;;;;;;;;;;;;;;17.82;79.52539;101631.1;;;;-70
2023/08/13 04:41:20;;;;;;;;;;;;;;;17.81;79.16309;101628.7;;;;-71
2023/08/13 04:46:20;;;;;;;;;;;;;;;17.79;79.18457;101637;;;;-70
2023/08/13 04:49:16;;;;;;;0.2;0.1;;;;;;;;;;;;;-71
2023/08/13 04:51:20;;;;;;;;;;;;;;;17.78;79.73242;101639.8;;;;-70
2023/08/13 04:56:20;;;;;;;;;;;;;;;17.79;79.16016;101634.9;;;;-70
2023/08/13 05:01:21;;;;;;;;;;;;;;;17.78;80.04785;101629.4;;;;-70
2023/08/13 05:06:20;;;;;;;;;;;;;;;17.78;80.47461;101630.4;;;;-70
2023/08/13 05:11:21;;;;;;;;;;;;;;;17.79;80.76953;101632.4;;;;-71
2023/08/13 05:16:23;;;;;;;;;;;;;;;17.8;80.42188;101640.1;;;;-70
2023/08/13 05:19:18;;;;;;;0.2;0;;;;;;;;;;;;;-71
2023/08/13 05:21:20;;;;;;;;;;;;;;;17.81;79.88379;101633.1;;;;-70
2023/08/13 05:26:21;;;;;;;;;;;;;;;17.83;80.32617;101632.2;;;;-70
2023/08/13 05:31:20;;;;;;;;;;;;;;;17.84;80.80176;101640.8;;;;-70
2023/08/13 05:36:20;;;;;;;;;;;;;;;17.87;81.06738;101644.2;;;;-70
2023/08/13 05:41:20;;;;;;;;;;;;;;;17.95;80.85547;101643.8;;;;-70
2023/08/13 05:46:20;;;;;;;;;;;;;;;17.99;81.04199;101648.3;;;;-70
2023/08/13 05:49:21;;;;;;;0.2;0.1;;;;;;;;;;;;;-72
2023/08/13 05:51:20;;;;;;;;;;;;;;;18;81.09961;101650.8;;;;-71
2023/08/13 05:56:21;;;;;;;;;;;;;;;17.99;81.94141;101657.1;;;;-71
2023/08/13 06:01:20;;;;;;;;;;;;;;;18.08;81.77832;101653.1;;;;-72
2023/08/13 06:06:21;;;;;;;;;;;;;;;18.35;81.59277;101656.6;;;;-70
2023/08/13 06:11:20;;;;;;;;;;;;;;;18.39;82.40918;101663.1;;;;-71
2023/08/13 06:16:20;;;;;;;;;;;;;;;18.62;81.92383;101666.7;;;;-70
2023/08/13 06:19:26;;;;;;;0.3;0.1;;;;;;;;;;;;;-69
2023/08/13 06:21:20;;;;;;;;;;;;;;;19.11;81.7207;101664.5;;;;-71
2023/08/13 06:26:25;;;;;;;;;;;;;;;19.63;80.13184;101656.8;;;;-71
2023/08/13 06:31:20;;;;;;;;;;;;;;;20.05;77.44629;101659.4;;;;-70
2023/08/13 06:36:24;;;;;;;;;;;;;;;20.15;77;101658.3;;;;-71
2023/08/13 06:41:21;;;;;;;;;;;;;;;20;77.22363;101657.7;;;;-70
2023/08/13 06:46:20;;;;;;;;;;;;;;;20.12;77.38086;101659.7;;;;-69
2023/08/13 06:49:27;;;;;;;0.2;0.1;;;;;;;;;;;;;-70
2023/08/13 06:51:20;;;;;;;;;;;;;;;20.5;76.48242;101664.8;;;;-70
2023/08/13 06:56:20;;;;;;;;;;;;;;;20.96;74.58789;101655.3;;;;-70
2023/08/13 07:01:28;;;;;;;;;;;;;;;21.37;73.23633;101659.5;;;;-70
2023/08/13 07:06:21;;;;;;;;;;;;;;;21.54;72.33008;101658.2;;;;-69
2023/08/13 07:11:20;;;;;;;;;;;;;;;21.55;71.79688;101662.5;;;;-71
2023/08/13 07:16:20;;;;;;;;;;;;;;;21.48;72.50293;101659.8;;;;-71
2023/08/13 07:19:30;;;;;;;4.1;0.2;;;;;;;;;;;;;-71
2023/08/13 07:21:20;;;;;;;;;;;;;;;21.54;72.46777;101656.9;;;;-72
2023/08/13 07:26:23;;;;;;;;;;;;;;;21.83;72.00293;101654.3;;;;-71
2023/08/13 07:31:21;;;;;;;;;;;;;;;22.07;70.99316;101663.4;;;;-71
2023/08/13 07:36:22;;;;;;;;;;;;;;;22.31;69.67285;101652.7;;;;-71
2023/08/13 07:41:20;;;;;;;;;;;;;;;22.53;69.9707;101659.3;;;;-72
2023/08/13 07:46:21;;;;;;;;;;;;;;;22.73;68.06152;101663.2;;;;-70
2023/08/13 07:49:36;;;;;;;0.2;0.1;;;;;;;;;;;;;-70
2023/08/13 07:51:23;;;;;;;;;;;;;;;22.77;67.67871;101663.2;;;;-71
2023/08/13 07:56:20;;;;;;;;;;;;;;;23.13;66.73926;101661.6;;;;-71
2023/08/13 08:01:23;;;;;;;;;;;;;;;23.26;66.27734;101662.3;;;;-70
2023/08/13 08:06:21;;;;;;;;;;;;;;;23.39;66.26172;101662.3;;;;-70
2023/08/13 08:11:20;;;;;;;;;;;;;;;23.75;64.8252;101671;;;;-71
2023/08/13 08:16:20;;;;;;;;;;;;;;;23.62;64.54492;101676.4;;;;-71
2023/08/13 08:19:37;;;;;;;0.2;0.1;;;;;;;;;;;;;-74
2023/08/13 08:21:28;;;;;;;;;;;;;;;23.35;65.09082;101679.8;;;;-71
2023/08/13 08:26:20;;;;;;;;;;;;;;;23.17;65.96777;101679.2;;;;-70
2023/08/13 08:31:28;;;;;;;;;;;;;;;23.4;65.09766;101679;;;;-70
2023/08/13 08:36:24;;;;;;;;;;;;;;;23.34;65.4541;101678.5;;;;-70
2023/08/13 08:41:22;;;;;;;;;;;;;;;23.16;65.73633;101663.8;;;;-70
2023/08/13 08:46:21;;;;;;;;;;;;;;;23.17;65.31543;101664.9;;;;-70
2023/08/13 08:49:41;;;;;;;0.2;0.1;;;;;;;;;;;;;-70
2023/08/13 08:51:21;;;;;;;;;;;;;;;23.48;64.75293;101667.6;;;;-69
2023/08/13 08:56:20;;;;;;;;;;;;;;;23.85;63.60352;101664.1;;;;-71
2023/08/13 09:01:20;;;;;;;;;;;;;;;24.1;63.61719;101661.9;;;;-71
2023/08/13 09:06:20;;;;;;;;;;;;;;;24.24;62.4082;101659.9;;;;-71
2023/08/13 09:11:23;;;;;;;;;;;;;;;24.12;62.40234;101665.4;;;;-69
2023/08/13 09:16:21;;;;;;;;;;;;;;;24.06;62.11914;101665.2;;;;-70
2023/08/13 09:19:45;;;;;;;0.3;0.2;;;;;;;;;;;;;-69
2023/08/13 09:21:20;;;;;;;;;;;;;;;23.92;62.9834;101660.8;;;;-69
2023/08/13 09:26:23;;;;;;;;;;;;;;;23.87;62.47168;101663.2;;;;-69
2023/08/13 09:31:21;;;;;;;;;;;;;;;23.93;61.81543;101660.4;;;;-70
2023/08/13 09:36:23;;;;;;;;;;;;;;;23.83;63.00391;101656.8;;;;-70
2023/08/13 09:41:21;;;;;;;;;;;;;;;23.84;62.17969;101651.8;;;;-71
2023/08/13 09:46:23;;;;;;;;;;;;;;;23.88;62.96582;101650.3;;;;-71
2023/08/13 09:49:50;;;;;;;0.2;0;;;;;;;;;;;;;-71
2023/08/13 09:51:24;;;;;;;;;;;;;;;23.98;62.25684;101651;;;;-70
2023/08/13 09:56:23;;;;;;;;;;;;;;;24.17;61.68848;101644.6;;;;-71
2023/08/13 10:01:20;;;;;;;;;;;;;;;24.26;61.45801;101646.8;;;;-70
2023/08/13 10:06:23;;;;;;;;;;;;;;;24.42;61.13477;101637.7;;;;-71
2023/08/13 10:11:22;;;;;;;;;;;;;;;24.45;60.51953;101631;;;;-71
2023/08/13 10:16:21;;;;;;;;;;;;;;;24.42;59.95313;101631.3;;;;-71
2023/08/13 10:19:56;;;;;;;0.2;0;;;;;;;;;;;;;-71
2023/08/13 10:21:30;;;;;;;;;;;;;;;24.72;59.93555;101630.6;;;;-69
2023/08/13 10:26:21;;;;;;;;;;;;;;;25.05;60.61035;101626.5;;;;-71
2023/08/13 10:31:32;;;;;;;;;;;;;;;25.35;58.69531;101637;;;;-70
2023/08/13 10:36:22;;;;;;;;;;;;;;;25.32;57.03125;101631.2;;;;-71
2023/08/13 10:41:30;;;;;;;;;;;;;;;25.62;57.32324;101626.5;;;;-70
2023/08/13 10:46:20;;;;;;;;;;;;;;;26;57.52148;101628.9;;;;-70
2023/08/13 10:50:00;;;;;;;0.2;0;;;;;;;;;;;;;-70
2023/08/13 10:51:30;;;;;;;;;;;;;;;26.2;57.69727;101623.1;;;;-70
2023/08/13 10:56:23;;;;;;;;;;;;;;;26.26;56.79297;101626.9;;;;-68
2023/08/13 11:01:21;;;;;;;;;;;;;;;26.39;56.47461;101628.9;;;;-70
2023/08/13 11:06:22;;;;;;;;;;;;;;;26.34;55.50977;101625.7;;;;-73
2023/08/13 11:11:21;;;;;;;;;;;;;;;26.45;54.59863;101618.9;;;;-68
2023/08/13 11:16:20;;;;;;;;;;;;;;;26.77;55.07715;101619.7;;;;-70
2023/08/13 11:20:05;;;;;;;0.2;0;;;;;;;;;;;;;-69
2023/08/13 11:21:20;;;;;;;;;;;;;;;27.1;56.73633;101618.5;;;;-70
2023/08/13 11:26:21;;;;;;;;;;;;;;;27.38;55.37012;101609.5;;;;-69
2023/08/13 11:31:20;;;;;;;;;;;;;;;27.42;56.45215;101617.5;;;;-70
2023/08/13 11:36:20;;;;;;;;;;;;;;;27.44;55.86426;101616.6;;;;-70
2023/08/13 11:41:20;;;;;;;;;;;;;;;27.65;55.98242;101611.2;;;;-70
2023/08/13 11:46:20;;;;;;;;;;;;;;;27.91;55.51563;101613.8;;;;-70
2023/08/13 11:50:07;;;;;;;0.2;0;;;;;;;;;;;;;-69
2023/08/13 11:51:23;;;;;;;;;;;;;;;27.73;56.53711;101610.9;;;;-69
2023/08/13 11:56:21;;;;;;;;;;;;;;;27.56;56.67871;101614;;;;-74
2023/08/13 12:01:21;;;;;;;;;;;;;;;27.25;53.60547;101618;;;;-75
2023/08/13 12:06:20;;;;;;;;;;;;;;;27.19;55.77637;101617.8;;;;-74
2023/08/13 12:11:20;;;;;;;;;;;;;;;27.39;54.90918;101613;;;;-74
2023/08/13 12:16:21;;;;;;;;;;;;;;;27.45;54.55664;101610.5;;;;-75
2023/08/13 12:20:13;;;;;;;5.5;0.1;;;;;;;;;;;;;-75
2023/08/13 12:21:23;;;;;;;;;;;;;;;27.53;54.33496;101606.7;;;;-74
2023/08/13 12:26:28;;;;;;;;;;;;;;;27.71;53.79883;101607;;;;-74
2023/08/13 12:31:25;;;;;;;;;;;;;;;27.89;55.03906;101601;;;;-75
2023/08/13 12:36:20;;;;;;;;;;;;;;;28.03;53.76855;101604.8;;;;-73
2023/08/13 12:41:25;;;;;;;;;;;;;;;27.95;53.71191;101604.8;;;;-72
2023/08/13 12:46:20;;;;;;;;;;;;;;;27.72;53.36035;101614.9;;;;-73
2023/08/13 12:50:17;;;;;;;0.2;0;;;;;;;;;;;;;-73
2023/08/13 12:51:21;;;;;;;;;;;;;;;27.34;53.35156;101606.9;;;;-74
2023/08/13 12:56:20;;;;;;;;;;;;;;;27.11;54.18066;101609.4;;;;-70
2023/08/13 13:01:20;;;;;;;;;;;;;;;27.02;53.86914;101606.8;;;;-69
2023/08/13 13:06:20;;;;;;;;;;;;;;;27.02;53.30078;101611.7;;;;-68
2023/08/13 13:11:21;;;;;;;;;;;;;;;26.81;53.62402;101625.9;;;;-68
2023/08/13 13:16:20;;;;;;;;;;;;;;;26.57;54.40527;101635.6;;;;-69
2023/08/13 13:20:26;;;;;;;0.2;0;;;;;;;;;;;;;-69
2023/08/13 13:21:20;;;;;;;;;;;;;;;26.29;56.05664;101637.6;;;;-68
2023/08/13 13:26:20;;;;;;;;;;;;;;;26.03;55.75977;101634.8;;;;-70
2023/08/13 13:31:20;;;;;;;;;;;;;;;25.84;55.92188;101637.7;;;;-70
2023/08/13 13:36:20;;;;;;;;;;;;;;;25.7;56.51465;101642.8;;;;-70
2023/08/13 13:41:20;;;;;;;;;;;;;;;25.55;57.10742;101647.5;;;;-70
2023/08/13 13:46:20;;;;;;;;;;;;;;;25.27;56.42578;101644.9;;;;-71
2023/08/13 13:50:28;;;;;;;0.2;0.1;;;;;;;;;;;;;-71
2023/08/13 13:51:20;;;;;;;;;;;;;;;24.94;57.19043;101625.8;;;;-70
2023/08/13 13:56:20;;;;;;;;;;;;;;;24.74;58.28223;101630.5;;;;-70
2023/08/13 14:01:20;;;;;;;;;;;;;;;24.6;58.5625;101627.5;;;;-71
2023/08/13 14:06:20;;;;;;;;;;;;;;;24.51;58.42383;101619;;;;-71
2023/08/13 14:11:23;;;;;;;;;;;;;;;24.46;58.33789;101612.4;;;;-70
2023/08/13 14:16:20;;;;;;;;;;;;;;;24.49;58.49023;101617.1;;;;-71
2023/08/13 14:20:35;;;;;;;0.2;0;;;;;;;;;;;;;-71
2023/08/13 14:21:20;;;;;;;;;;;;;;;24.52;58.27734;101611;;;;-70
2023/08/13 14:26:23;;;;;;;;;;;;;;;24.53;57.95605;101615.3;;;;-70
2023/08/13 14:31:20;;;;;;;;;;;;;;;24.5;57.85938;101613;;;;-72
2023/08/13 14:36:23;;;;;;;;;;;;;;;24.54;57.74902;101610.9;;;;-71
2023/08/13 14:41:21;;;;;;;;;;;;;;;24.62;57.54102;101604;;;;-70
2023/08/13 14:46:23;;;;;;;;;;;;;;;24.8;57.55273;101595.9;;;;-71
2023/08/13 14:50:36;;;;;;;0.2;0.1;;;;;;;;;;;;;-71
2023/08/13 14:51:20;;;;;;;;;;;;;;;24.93;57.74316;101606.8;;;;-71
2023/08/13 14:56:20;;;;;;;;;;;;;;;24.97;58.09375;101606.5;;;;-71
2023/08/13 15:01:20;;;;;;;;;;;;;;;25.09;58.00488;101605.3;;;;-70
2023/08/13 15:06:23;;;;;;;;;;;;;;;25.2;58.03027;101596.9;;;;-70
2023/08/13 15:11:20;;;;;;;;;;;;;;;25.44;57.6123;101593.5;;;;-70
2023/08/13 15:16:23;;;;;;;;;;;;;;;25.64;57.34863;101597;;;;-70
2023/08/13 15:20:41;;;;;;;0.2;0;;;;;;;;;;;;;-69
2023/08/13 15:21:20;;;;;;;;;;;;;;;25.73;57.33691;101600.8;;;;-70
2023/08/13 15:26:20;;;;;;;;;;;;;;;25.96;57.88672;101607.3;;;;-71
2023/08/13 15:31:20;;;;;;;;;;;;;;;25.95;58.05859;101611.5;;;;-71
2023/08/13 15:36:20;;;;;;;;;;;;;;;25.93;57.38574;101600.2;;;;-71
2023/08/13 15:41:20;;;;;;;;;;;;;;;25.95;57.38867;101600.3;;;;-70
2023/08/13 15:46:20;;;;;;;;;;;;;;;25.94;57.29492;101602.3;;;;-71
2023/08/13 15:50:45;;;;;;;0.2;0;;;;;;;;;;;;;-70
2023/08/13 15:51:20;;;;;;;;;;;;;;;26.04;57.51563;101607.7;;;;-70
2023/08/13 15:56:20;;;;;;;;;;;;;;;26.07;56.94238;101611.5;;;;-70
2023/08/13 16:01:21;;;;;;;;;;;;;;;26.08;56.00879;101625.7;;;;-69
2023/08/13 16:06:20;;;;;;;;;;;;;;;26.02;56.3252;101618;;;;-70
2023/08/13 16:11:20;;;;;;;;;;;;;;;26.04;56.07324;101613.7;;;;-69
2023/08/13 16:16:20;;;;;;;;;;;;;;;25.82;54.94922;101612.4;;;;-70
2023/08/13 16:20:50;;;;;;;0.2;0;;;;;;;;;;;;;-70
2023/08/13 16:21:20;;;;;;;;;;;;;;;25.62;55.48926;101608.2;;;;-71
2023/08/13 16:26:20;;;;;;;;;;;;;;;25.57;55.0791;101611.2;;;;-70
2023/08/13 16:31:20;;;;;;;;;;;;;;;25.6;55.25781;101611.5;;;;-70
2023/08/13 16:36:20;;;;;;;;;;;;;;;25.56;53.87891;101611.5;;;;-72
2023/08/13 16:41:20;;;;;;;;;;;;;;;25.4;54.66699;101615.3;;;;-70
2023/08/13 16:46:20;;;;;;;;;;;;;;;25.22;54.87598;101610;;;;-70
2023/08/13 16:50:55;;;;;;;0.2;0.1;;;;;;;;;;;;;-70
2023/08/13 16:51:25;;;;;;;;;;;;;;;25.08;55.51563;101602.6;;;;-72
2023/08/13 16:56:20;;;;;;;;;;;;;;;24.98;55.42285;101599.5;;;;-71
2023/08/13 17:01:20;;;;;;;;;;;;;;;24.83;55.31152;101602.6;;;;-70
2023/08/13 17:06:20;;;;;;;;;;;;;;;24.61;55.76855;101601.2;;;;-69
2023/08/13 17:11:20;;;;;;;;;;;;;;;24.45;55.61133;101607.5;;;;-71
2023/08/13 17:16:21;;;;;;;;;;;;;;;24.35;55.9668;101606.3;;;;-70
2023/08/13 17:20:59;;;;;;;0.2;0.1;;;;;;;;;;;;;-70
2023/08/13 17:21:22;;;;;;;;;;;;;;;24.3;55.7998;101605.4;;;;-71
2023/08/13 17:26:21;;;;;;;;;;;;;;;24.19;56.02734;101609.8;;;;-70
2023/08/13 17:31:20;;;;;;;;;;;;;;;23.99;56.53027;101602.6;;;;-70
2023/08/13 17:36:20;;;;;;;;;;;;;;;23.78;56.68848;101598.2;;;;-73
2023/08/13 17:41:24;;;;;;;;;;;;;;;23.63;56.93359;101598;;;;-69
2023/08/13 17:46:20;;;;;;;;;;;;;;;23.48;57.25879;101597.5;;;;-70
2023/08/13 17:51:04;;;;;;;0.2;0.1;;;;;;;;;;;;;-71
2023/08/13 17:51:25;;;;;;;;;;;;;;;23.38;57.03906;101590.8;;;;-70
2023/08/13 17:56:20;;;;;;;;;;;;;;;23.23;57.23828;101589.6;;;;-70
2023/08/13 18:01:20;;;;;;;;;;;;;;;23.12;57.14355;101593.9;;;;-70
2023/08/13 18:06:20;;;;;;;;;;;;;;;22.98;57.63086;101601.5;;;;-71
2023/08/13 18:11:20;;;;;;;;;;;;;;;22.85;57.83105;101601.6;;;;-70
2023/08/13 18:16:21;;;;;;;;;;;;;;;22.71;57.6875;101603.2;;;;-71
2023/08/13 18:21:08;;;;;;;0.2;0;;;;;;;;;;;;;-69
2023/08/13 18:21:20;;;;;;;;;;;;;;;22.57;57.7832;101602.8;;;;-69
2023/08/13 18:26:20;;;;;;;;;;;;;;;22.43;58.2793;101602.5;;;;-71
2023/08/13 18:31:20;;;;;;;;;;;;;;;22.27;58.28223;101606.9;;;;-70
2023/08/13 18:36:20;;;;;;;;;;;;;;;22.12;58.02344;101616.6;;;;-70
2023/08/13 18:41:20;;;;;;;;;;;;;;;21.96;57.92188;101620.3;;;;-70
2023/08/13 18:46:21;;;;;;;;;;;;;;;21.79;58.54004;101623.8;;;;-68
2023/08/13 18:51:12;;;;;;;0.2;0.1;;;;;;;;;;;;;-69
2023/08/13 18:51:22;;;;;;;;;;;;;;;21.62;58.95215;101628;;;;-72
2023/08/13 18:56:20;;;;;;;;;;;;;;;21.43;59.15527;101625.5;;;;-70
2023/08/13 19:01:20;;;;;;;;;;;;;;;21.26;59.29297;101630.9;;;;-70
2023/08/13 19:06:20;;;;;;;;;;;;;;;21.1;59.44238;101634.1;;;;-70
2023/08/13 19:11:20;;;;;;;;;;;;;;;20.9;59.55273;101630.7;;;;-70
2023/08/13 19:16:20;;;;;;;;;;;;;;;20.73;59.32422;101627.5;;;;-71
2023/08/13 19:21:16;;;;;;;0.2;0;;;;;;;;;;;;;-70
2023/08/13 19:21:28;;;;;;;;;;;;;;;20.54;59.4707;101637.7;;;;-70
2023/08/13 19:26:20;;;;;;;;;;;;;;;20.43;59.95508;101641.3;;;;-70
2023/08/13 19:31:20;;;;;;;;;;;;;;;20.29;60.3252;101639.9;;;;-70
2023/08/13 19:36:20;;;;;;;;;;;;;;;20.15;60.9082;101639.2;;;;-69
2023/08/13 19:41:20;;;;;;;;;;;;;;;20;60.59277;101640.9;;;;-71
2023/08/13 19:46:20;;;;;;;;;;;;;;;19.91;61.16992;101640.3;;;;-69
2023/08/13 19:51:20;;;;;;;0.2;0;;;;;;;;;;;;;-72
2023/08/13 19:51:30;;;;;;;;;;;;;;;19.74;61.19336;101635.8;;;;-70
2023/08/13 19:56:21;;;;;;;;;;;;;;;19.62;61.31445;101639.8;;;;-70
2023/08/13 20:01:23;;;;;;;;;;;;;;;19.51;61.83203;101641.3;;;;-70
2023/08/13 20:06:20;;;;;;;;;;;;;;;19.39;61.86133;101642.2;;;;-70
2023/08/13 20:11:20;;;;;;;;;;;;;;;19.29;62.32227;101647.2;;;;-70
2023/08/13 20:16:21;;;;;;;;;;;;;;;19.21;62.36914;101645.1;;;;-70
2023/08/13 20:21:20;;;;;;;;;;;;;;;19.11;62.36719;101647.5;;;;-71
2023/08/13 20:21:30;;;;;;;0.2;0;;;;;;;;;;;;;-71
2023/08/13 20:26:20;;;;;;;;;;;;;;;19.01;62.34082;101639.6;;;;-72
2023/08/13 20:31:23;;;;;;;;;;;;;;;18.94;62.34375;101639;;;;-70
2023/08/13 20:36:20;;;;;;;;;;;;;;;18.87;62.33301;101640.6;;;;-70
2023/08/13 20:41:20;;;;;;;;;;;;;;;18.8;62.2207;101643;;;;-70
2023/08/13 20:46:20;;;;;;;;;;;;;;;18.69;62.74902;101648.5;;;;-69
2023/08/13 20:51:21;;;;;;;;;;;;;;;18.62;62.9541;101650.7;;;;-70
2023/08/13 20:51:30;;;;;;;0.3;0.1;;;;;;;;;;;;;-70
2023/08/13 20:56:20;;;;;;;;;;;;;;;18.58;62.74512;101653.8;;;;-69
2023/08/13 21:01:20;;;;;;;;;;;;;;;18.51;63.0752;101651.7;;;;-71
2023/08/13 21:06:20;;;;;;;;;;;;;;;18.4;63.79492;101646.4;;;;-72
2023/08/13 21:11:20;;;;;;;;;;;;;;;18.32;63.44531;101644.6;;;;-71
2023/08/13 21:16:21;;;;;;;;;;;;;;;18.25;63.79688;101647.9;;;;-69
2023/08/13 21:21:21;;;;;;;;;;;;;;;18.21;63.84668;101651.4;;;;-70
2023/08/13 21:21:30;;;;;;;0.2;0;;;;;;;;;;;;;-70
2023/08/13 21:26:20;;;;;;;;;;;;;;;18.14;64.38086;101648.5;;;;-70
2023/08/13 21:31:20;;;;;;;;;;;;;;;18.12;63.99414;101652.2;;;;-71
2023/08/13 21:36:20;;;;;;;;;;;;;;;18.07;64.21191;101648.8;;;;-69
2023/08/13 21:41:20;;;;;;;;;;;;;;;17.98;64.50391;101640.7;;;;-71
2023/08/13 21:46:21;;;;;;;;;;;;;;;17.97;64.70605;101641.8;;;;-69
2023/08/13 21:51:20;;;;;;;;;;;;;;;17.93;64.55469;101640.4;;;;-70
2023/08/13 21:51:33;;;;;;;0.2;0.1;;;;;;;;;;;;;-69
2023/08/13 21:56:20;;;;;;;;;;;;;;;17.92;64.61914;101652.7;;;;-70
2023/08/13 22:01:20;;;;;;;;;;;;;;;17.83;65.14844;101655.3;;;;-69
2023/08/13 22:06:20;;;;;;;;;;;;;;;17.78;65.19824;101656.5;;;;-71
2023/08/13 22:11:20;;;;;;;;;;;;;;;17.76;65.09277;101653.3;;;;-70
2023/08/13 22:16:20;;;;;;;;;;;;;;;17.7;65.38965;101648.8;;;;-70
2023/08/13 22:21:20;;;;;;;;;;;;;;;17.7;65.53809;101654.3;;;;-71
2023/08/13 22:21:36;;;;;;;0.2;0;;;;;;;;;;;;;-70
2023/08/13 22:26:21;;;;;;;;;;;;;;;17.63;65.5498;101655.9;;;;-70
2023/08/13 22:31:21;;;;;;;;;;;;;;;17.58;66.16309;101658.5;;;;-70
2023/08/13 22:36:21;;;;;;;;;;;;;;;17.56;65.84375;101662.1;;;;-71
2023/08/13 22:41:20;;;;;;;;;;;;;;;17.52;65.72559;101663.4;;;;-70
2023/08/13 22:46:22;;;;;;;;;;;;;;;17.5;65.74414;101658.5;;;;-70
2023/08/13 22:51:20;;;;;;;;;;;;;;;17.44;66.0625;101660.3;;;;-70
2023/08/13 22:51:39;;;;;;;0.2;0.1;;;;;;;;;;;;;-70
2023/08/13 22:56:20;;;;;;;;;;;;;;;17.38;66.23438;101663.2;;;;-70
2023/08/13 23:01:20;;;;;;;;;;;;;;;17.35;66.75;101659.3;;;;-71
2023/08/13 23:06:21;;;;;;;;;;;;;;;17.3;66.38184;101657.4;;;;-69
2023/08/13 23:11:22;;;;;;;;;;;;;;;17.29;66.93066;101654.2;;;;-70
2023/08/13 23:16:20;;;;;;;;;;;;;;;17.28;66.98633;101652.3;;;;-71
2023/08/13 23:21:20;;;;;;;;;;;;;;;17.25;67.28711;101642.8;;;;-70
2023/08/13 23:21:41;;;;;;;0.4;0.1;;;;;;;;;;;;;-69
2023/08/13 23:26:20;;;;;;;;;;;;;;;17.21;67.15625;101648.2;;;;-71
2023/08/13 23:31:20;;;;;;;;;;;;;;;17.17;67.00391;101655.4;;;;-70
2023/08/13 23:36:20;;;;;;;;;;;;;;;17.12;67.12109;101657.1;;;;-71
2023/08/13 23:41:20;;;;;;;;;;;;;;;17.06;68.05859;101647.2;;;;-73
2023/08/13 23:46:20;;;;;;;;;;;;;;;17.03;67.55859;101649.7;;;;-71
2023/08/13 23:51:22;;;;;;;;;;;;;;;17.01;67.44141;101645.2;;;;-70
2023/08/13 23:51:44;;;;;;;0.2;0;;;;;;;;;;;;;-71
2023/08/13 23:56:23;;;;;;;;;;;;;;;16.96;67.93066;101641.6;;;;-71
